Time;durP1;ratioP1;P1;durP2;ratioP2;P2;SDS_P1;SDS_P2;PMS_P1;PMS_P2;Temp;Humidity;BMP_temperature;BMP_pressure;BME280_temperature;BME280_humidity;BME280_pressure;Samples;Min_cycle;Max_cycle;Signal;HPM_P1;HPM_P2
2023/04/24 00:01:24;;;;;;;8.30;4.27;;;;;;;;;;5113693;28;20736;-80
2023/04/24 00:03:51;;;;;;;8.10;4.27;;;;;;;;;;5113376;28;20200;-79
2023/04/24 00:06:18;;;;;;;8.87;4.27;;;;;;;;;;5113308;28;20734;-80
2023/04/24 00:08:46;;;;;;;6.23;4.30;;;;;;;;;;5113097;28;20281;-79
2023/04/24 00:11:13;;;;;;;8.57;4.63;;;;;;;;;;5113317;28;20295;-79
2023/04/24 00:13:41;;;;;;;9.33;4.20;;;;;;;;;;5112707;28;20683;-79
2023/04/24 00:16:09;;;;;;;8.70;4.10;;;;;;;;;;5113521;28;20304;-79
2023/04/24 00:18:36;;;;;;;7.33;3.90;;;;;;;;;;5112970;28;20229;-78
2023/04/24 00:21:03;;;;;;;9.07;4.37;;;;;;;;;;5113083;28;20232;-79
2023/04/24 00:23:30;;;;;;;4.57;2.80;;;;;;;;;;5112920;28;21001;-79
2023/04/24 00:25:57;;;;;;;5.63;2.90;;;;;;;;;;5112834;28;20767;-79
2023/04/24 00:28:25;;;;;;;5.17;2.80;;;;;;;;;;5112644;28;20209;-79
2023/04/24 00:30:53;;;;;;;6.03;2.90;;;;;;;;;;5113335;28;20346;-80
2023/04/24 00:33:21;;;;;;;6.43;3.53;;;;;;;;;;5112728;28;20744;-79
2023/04/24 00:35:48;;;;;;;6.27;2.97;;;;;;;;;;5112795;28;20270;-79
2023/04/24 00:38:15;;;;;;;7.13;3.13;;;;;;;;;;5112926;28;20236;-79
2023/04/24 00:40:42;;;;;;;5.47;3.30;;;;;;;;;;5112693;28;20654;-78
2023/04/24 00:43:09;;;;;;;6.23;3.10;;;;;;;;;;5112050;28;20266;-80
2023/04/24 00:45:36;;;;;;;6.27;3.87;;;;;;;;;;5112570;28;20194;-80
2023/04/24 00:48:05;;;;;;;4.80;3.20;;;;;;;;;;5112865;28;20197;-79
2023/04/24 00:50:33;;;;;;;6.63;3.43;;;;;;;;;;5112354;28;20613;-79
2023/04/24 00:53:00;;;;;;;6.00;3.43;;;;;;;;;;5112448;28;20240;-78
2023/04/24 00:55:27;;;;;;;4.50;3.20;;;;;;;;;;5112481;28;20194;-79
2023/04/24 00:57:55;;;;;;;7.97;3.40;;;;;;;;;;5112219;28;20320;-79
2023/04/24 01:00:22;;;;;;;5.87;3.03;;;;;;;;;;5112484;28;20225;-79
2023/04/24 01:02:51;;;;;;;5.93;3.47;;;;;;;;;;5112204;28;20200;-79
2023/04/24 01:05:20;;;;;;;6.30;3.50;;;;;;;;;;5112356;28;20286;-78
2023/04/24 01:07:48;;;;;;;5.50;2.83;;;;;;;;;;5112645;28;20251;-78
2023/04/24 01:10:17;;;;;;;7.40;3.30;;;;;;;;;;5112410;28;20199;-79
2023/04/24 01:12:44;;;;;;;4.93;2.80;;;;;;;;;;5111490;28;20201;-78
2023/04/24 01:15:12;;;;;;;4.27;2.90;;;;;;;;;;5092144;28;20225;-79
2023/04/24 01:17:39;;;;;;;4.83;3.00;;;;;;;;;;5091780;28;20229;-80
2023/04/24 01:20:07;;;;;;;8.83;3.10;;;;;;;;;;5091842;28;20205;-79
2023/04/24 01:22:36;;;;;;;7.20;3.03;;;;;;;;;;5091796;28;20802;-79
2023/04/24 01:25:03;;;;;;;6.40;3.57;;;;;;;;;;5092022;28;20193;-79
2023/04/24 01:27:31;;;;;;;4.90;3.27;;;;;;;;;;5091156;28;20705;-81
2023/04/24 01:29:58;;;;;;;6.60;3.57;;;;;;;;;;5091940;28;20237;-79
2023/04/24 01:32:25;;;;;;;8.67;3.60;;;;;;;;;;5091732;28;20195;-79
2023/04/24 01:34:52;;;;;;;8.93;3.80;;;;;;;;;;5091925;28;20229;-79
2023/04/24 01:37:20;;;;;;;8.30;3.90;;;;;;;;;;5091476;28;20228;-78
2023/04/24 01:39:48;;;;;;;7.03;3.87;;;;;;;;;;5091175;28;20290;-79
2023/04/24 01:42:15;;;;;;;6.90;3.77;;;;;;;;;;5091392;28;20660;-79
2023/04/24 01:44:43;;;;;;;8.30;4.37;;;;;;;;;;5091405;28;20218;-79
2023/04/24 01:47:10;;;;;;;12.00;4.40;;;;;;;;;;5099089;28;20265;-78
2023/04/24 01:49:38;;;;;;;10.63;4.50;;;;;;;;;;5111940;28;20289;-79
2023/04/24 01:52:05;;;;;;;6.87;4.30;;;;;;;;;;5111982;28;20197;-79
2023/04/24 01:54:33;;;;;;;7.27;4.27;;;;;;;;;;5111413;28;20277;-79
2023/04/24 01:57:02;;;;;;;7.80;4.13;;;;;;;;;;5111435;28;20738;-78
2023/04/24 01:59:29;;;;;;;6.80;4.60;;;;;;;;;;5111886;28;20202;-79
2023/04/24 02:01:57;;;;;;;7.93;4.17;;;;;;;;;;5111818;28;20288;-78
2023/04/24 02:04:24;;;;;;;7.47;4.10;;;;;;;;;;5111922;28;20723;-79
2023/04/24 02:06:51;;;;;;;8.00;4.63;;;;;;;;;;5111746;28;20276;-79
2023/04/24 02:09:18;;;;;;;8.90;4.00;;;;;;;;;;5111328;28;20290;-79
2023/04/24 02:11:45;;;;;;;5.60;4.03;;;;;;;;;;5111715;28;20783;-79
2023/04/24 02:14:14;;;;;;;5.90;4.20;;;;;;;;;;5112138;28;20235;-79
2023/04/24 02:16:41;;;;;;;7.07;4.30;;;;;;;;;;5111375;28;20291;-79
2023/04/24 02:19:08;;;;;;;7.23;4.40;;;;;;;;;;5111258;28;20320;-79
2023/04/24 02:21:35;;;;;;;7.93;4.87;;;;;;;;;;5104119;28;20665;-78
2023/04/24 02:24:03;;;;;;;7.73;5.07;;;;;;;;;;5094808;28;20970;-79
2023/04/24 02:26:31;;;;;;;6.73;4.70;;;;;;;;;;5094909;28;20222;-79
2023/04/24 02:28:58;;;;;;;8.53;4.80;;;;;;;;;;5094960;28;20210;-78
2023/04/24 02:31:27;;;;;;;7.47;4.70;;;;;;;;;;5094783;28;20208;-78
2023/04/24 02:33:54;;;;;;;8.37;5.20;;;;;;;;;;5094967;28;20938;-79
2023/04/24 02:36:21;;;;;;;7.50;4.87;;;;;;;;;;5094867;28;20229;-79
2023/04/24 02:38:49;;;;;;;8.03;4.77;;;;;;;;;;5094008;28;20227;-79
2023/04/24 02:41:16;;;;;;;8.50;5.17;;;;;;;;;;5094554;28;20209;-78
2023/04/24 02:43:43;;;;;;;9.27;5.53;;;;;;;;;;5095121;28;20286;-79
2023/04/24 02:46:10;;;;;;;7.83;4.73;;;;;;;;;;5094605;28;20203;-80
2023/04/24 02:48:39;;;;;;;8.80;5.03;;;;;;;;;;5094265;28;20204;-80
2023/04/24 02:51:07;;;;;;;8.77;5.37;;;;;;;;;;5094857;28;20194;-79
2023/04/24 02:53:34;;;;;;;9.67;5.80;;;;;;;;;;5094163;28;20262;-79
2023/04/24 02:56:02;;;;;;;10.83;5.37;;;;;;;;;;5094670;28;20293;-79
2023/04/24 02:58:29;;;;;;;11.10;5.50;;;;;;;;;;5094338;28;20412;-80
2023/04/24 03:00:56;;;;;;;8.77;5.37;;;;;;;;;;5094265;28;20226;-79
2023/04/24 03:03:23;;;;;;;9.73;5.27;;;;;;;;;;5094162;28;20288;-79
2023/04/24 03:05:52;;;;;;;10.43;5.43;;;;;;;;;;5094442;28;20283;-79
2023/04/24 03:08:19;;;;;;;10.47;5.23;;;;;;;;;;5093799;28;20278;-79
2023/04/24 03:10:46;;;;;;;11.87;5.67;;;;;;;;;;5094550;28;20584;-79
2023/04/24 03:13:14;;;;;;;10.13;5.47;;;;;;;;;;5098639;28;20235;-78
2023/04/24 03:15:41;;;;;;;9.20;5.43;;;;;;;;;;5114707;28;20222;-79
2023/04/24 03:18:08;;;;;;;8.40;5.40;;;;;;;;;;5114297;28;20226;-79
2023/04/24 03:20:36;;;;;;;7.87;4.70;;;;;;;;;;5114477;28;20281;-79
2023/04/24 03:23:05;;;;;;;10.43;5.13;;;;;;;;;;5113845;28;20204;-79
2023/04/24 03:25:32;;;;;;;9.70;5.33;;;;;;;;;;5114631;28;20228;-79
2023/04/24 03:27:59;;;;;;;10.30;5.00;;;;;;;;;;5114323;28;20296;-78
2023/04/24 03:30:26;;;;;;;10.67;5.13;;;;;;;;;;5114243;28;20666;-79
2023/04/24 03:32:54;;;;;;;11.87;5.50;;;;;;;;;;5114149;28;20301;-79
2023/04/24 03:35:22;;;;;;;8.37;5.00;;;;;;;;;;5114212;28;20193;-79
2023/04/24 03:37:49;;;;;;;13.40;5.20;;;;;;;;;;5113821;28;20226;-79
2023/04/24 03:40:18;;;;;;;9.00;5.50;;;;;;;;;;5114144;28;20198;-79
2023/04/24 03:42:45;;;;;;;11.83;5.60;;;;;;;;;;5113892;28;20269;-79
2023/04/24 03:45:12;;;;;;;10.17;5.20;;;;;;;;;;5113672;28;20737;-79
2023/04/24 03:47:39;;;;;;;8.70;5.10;;;;;;;;;;5113279;28;20651;-80
2023/04/24 03:50:07;;;;;;;8.10;4.90;;;;;;;;;;5114216;28;20222;-80
2023/04/24 03:52:34;;;;;;;10.10;5.20;;;;;;;;;;5113696;28;20197;-79
2023/04/24 03:55:02;;;;;;;11.23;4.87;;;;;;;;;;5113553;28;20198;-79
2023/04/24 03:57:31;;;;;;;9.60;4.97;;;;;;;;;;5113446;28;20647;-79
2023/04/24 03:59:58;;;;;;;12.27;5.00;;;;;;;;;;5113523;28;20285;-78
2023/04/24 04:02:25;;;;;;;8.07;4.60;;;;;;;;;;5114139;28;20204;-79
2023/04/24 04:04:52;;;;;;;8.93;4.80;;;;;;;;;;5113230;28;20225;-79
2023/04/24 04:07:20;;;;;;;7.90;4.90;;;;;;;;;;5113284;28;20658;-79
2023/04/24 04:09:47;;;;;;;9.67;4.90;;;;;;;;;;5113429;28;20733;-78
2023/04/24 04:12:14;;;;;;;10.53;5.27;;;;;;;;;;5113752;28;20244;-79
2023/04/24 04:14:42;;;;;;;7.53;4.70;;;;;;;;;;5113444;28;20634;-78
2023/04/24 04:17:10;;;;;;;9.20;4.50;;;;;;;;;;5113369;28;20199;-80
2023/04/24 04:19:37;;;;;;;7.50;4.73;;;;;;;;;;5112514;28;20347;-78
2023/04/24 04:22:04;;;;;;;8.17;4.43;;;;;;;;;;5113228;27;20296;-79
2023/04/24 04:24:31;;;;;;;8.13;4.30;;;;;;;;;;5113276;28;20262;-80
2023/04/24 04:26:59;;;;;;;8.07;4.13;;;;;;;;;;5113533;28;20282;-79
2023/04/24 04:29:26;;;;;;;6.67;3.90;;;;;;;;;;5112986;28;20189;-79
2023/04/24 04:31:55;;;;;;;11.27;4.43;;;;;;;;;;5112833;28;20296;-79
2023/04/24 04:34:22;;;;;;;10.27;4.67;;;;;;;;;;5112342;28;20198;-79
2023/04/24 04:36:50;;;;;;;9.53;4.70;;;;;;;;;;5113211;28;20197;-78
2023/04/24 04:39:18;;;;;;;9.60;4.60;;;;;;;;;;5112844;28;20234;-80
2023/04/24 04:41:46;;;;;;;10.57;4.20;;;;;;;;;;5112620;28;20241;-80
2023/04/24 04:44:13;;;;;;;7.00;4.17;;;;;;;;;;5112174;28;20200;-79
2023/04/24 04:46:41;;;;;;;9.20;4.07;;;;;;;;;;5112605;28;20238;-79
2023/04/24 04:49:10;;;;;;;8.83;4.60;;;;;;;;;;5112223;28;20292;-79
2023/04/24 04:51:39;;;;;;;8.80;4.40;;;;;;;;;;5112898;28;20193;-80
2023/04/24 04:54:06;;;;;;;10.83;4.40;;;;;;;;;;5112950;28;20228;-79
2023/04/24 04:56:33;;;;;;;9.30;4.30;;;;;;;;;;5112594;28;20689;-80
2023/04/24 04:59:01;;;;;;;8.57;4.37;;;;;;;;;;5112408;28;20229;-79
2023/04/24 05:01:28;;;;;;;8.37;4.17;;;;;;;;;;5112289;28;20240;-80
2023/04/24 05:03:55;;;;;;;7.13;4.03;;;;;;;;;;5112099;28;20590;-79
2023/04/24 05:06:24;;;;;;;11.13;4.83;;;;;;;;;;5112362;28;20217;-79
2023/04/24 05:08:51;;;;;;;8.27;4.70;;;;;;;;;;5112654;28;20273;-79
2023/04/24 05:11:18;;;;;;;8.10;5.50;;;;;;;;;;5112567;28;20288;-79
2023/04/24 05:13:45;;;;;;;7.20;4.63;;;;;;;;;;5112132;28;20225;-78
2023/04/24 05:16:12;;;;;;;10.37;4.40;;;;;;;;;;5112109;28;20234;-79
2023/04/24 05:18:39;;;;;;;6.63;4.20;;;;;;;;;;5111614;28;20326;-78
2023/04/24 05:21:07;;;;;;;5.60;4.40;;;;;;;;;;5112621;28;20296;-80
2023/04/24 05:23:35;;;;;;;10.13;4.63;;;;;;;;;;5111954;28;20289;-80
2023/04/24 05:26:03;;;;;;;8.50;4.70;;;;;;;;;;5112094;28;20248;-79
2023/04/24 05:28:30;;;;;;;7.17;4.67;;;;;;;;;;5112132;28;20226;-79
2023/04/24 05:30:59;;;;;;;8.13;4.20;;;;;;;;;;5111897;28;20662;-78
2023/04/24 05:33:26;;;;;;;11.33;4.67;;;;;;;;;;5111307;28;20236;-79
2023/04/24 05:35:53;;;;;;;5.60;4.27;;;;;;;;;;5112231;28;20276;-79
2023/04/24 05:38:20;;;;;;;10.70;4.70;;;;;;;;;;5112024;28;20596;-79
2023/04/24 05:40:49;;;;;;;9.23;4.30;;;;;;;;;;5112129;28;20198;-79
2023/04/24 05:43:16;;;;;;;9.17;4.10;;;;;;;;;;5111485;28;20678;-79
2023/04/24 05:45:43;;;;;;;5.80;4.00;;;;;;;;;;5111676;28;20679;-79
2023/04/24 05:48:10;;;;;;;7.37;4.00;;;;;;;;;;5111629;28;20196;-79
2023/04/24 05:50:38;;;;;;;7.33;4.20;;;;;;;;;;5111586;28;20686;-79
2023/04/24 05:53:06;;;;;;;9.17;4.07;;;;;;;;;;5111789;28;20740;-79
2023/04/24 05:55:34;;;;;;;7.87;3.90;;;;;;;;;;5113266;28;20238;-79
2023/04/24 05:58:02;;;;;;;8.10;4.10;;;;;;;;;;5115838;28;20222;-79
2023/04/24 06:00:30;;;;;;;8.07;4.00;;;;;;;;;;5115591;28;20654;-79
2023/04/24 06:02:57;;;;;;;9.50;4.30;;;;;;;;;;5115914;28;20284;-79
2023/04/24 06:05:24;;;;;;;8.60;4.17;;;;;;;;;;5115709;28;20203;-78
2023/04/24 06:07:51;;;;;;;11.10;4.80;;;;;;;;;;5116142;28;20200;-78
2023/04/24 06:10:19;;;;;;;8.47;4.60;;;;;;;;;;5115720;28;20228;-79
2023/04/24 06:12:46;;;;;;;9.10;4.60;;;;;;;;;;5115472;28;20229;-79
2023/04/24 06:15:15;;;;;;;6.67;4.40;;;;;;;;;;5115407;28;20284;-79
2023/04/24 06:17:42;;;;;;;8.10;4.13;;;;;;;;;;5115648;28;20230;-79
2023/04/24 06:20:10;;;;;;;8.10;4.23;;;;;;;;;;5115458;28;20320;-78
2023/04/24 06:22:39;;;;;;;7.63;4.50;;;;;;;;;;5115797;28;20193;-79
2023/04/24 06:25:07;;;;;;;9.53;4.00;;;;;;;;;;5115643;28;20596;-78
2023/04/24 06:27:35;;;;;;;8.80;3.77;;;;;;;;;;5115769;28;20237;-79
2023/04/24 06:30:02;;;;;;;6.40;4.10;;;;;;;;;;5114717;28;20194;-79
2023/04/24 06:32:31;;;;;;;7.37;3.57;;;;;;;;;;5115217;28;20693;-79
2023/04/24 06:34:58;;;;;;;5.20;3.30;;;;;;;;;;5115788;28;20251;-79
2023/04/24 06:37:26;;;;;;;6.53;3.60;;;;;;;;;;5115200;28;20289;-78
2023/04/24 06:39:53;;;;;;;7.23;3.40;;;;;;;;;;5115104;28;20225;-79
2023/04/24 06:42:21;;;;;;;5.57;2.63;;;;;;;;;;5114984;28;20233;-79
2023/04/24 06:44:49;;;;;;;6.10;2.63;;;;;;;;;;5114685;28;20201;-79
2023/04/24 06:47:16;;;;;;;4.60;2.80;;;;;;;;;;5115068;28;20255;-79
2023/04/24 06:49:44;;;;;;;6.93;2.72;;;;;;;;;;5115114;28;20300;-79
2023/04/24 06:52:11;;;;;;;4.20;2.35;;;;;;;;;;5115358;28;20225;-79
2023/04/24 06:54:39;;;;;;;5.63;2.30;;;;;;;;;;5114594;28;20200;-80
2023/04/24 06:57:06;;;;;;;4.38;2.40;;;;;;;;;;5114706;28;20243;-80
2023/04/24 06:59:33;;;;;;;6.63;3.00;;;;;;;;;;5114085;28;20240;-80
2023/04/24 07:02:00;;;;;;;4.93;2.67;;;;;;;;;;5114837;28;20217;-80
2023/04/24 07:04:27;;;;;;;3.72;2.58;;;;;;;;;;5114675;28;20194;-79
2023/04/24 07:06:57;;;;;;;3.92;2.65;;;;;;;;;;5114450;28;20229;-80
2023/04/24 07:09:25;;;;;;;5.95;2.85;;;;;;;;;;5114612;28;20281;-80
2023/04/24 07:11:52;;;;;;;5.40;3.08;;;;;;;;;;5114648;28;20224;-80
2023/04/24 07:14:20;;;;;;;4.35;2.85;;;;;;;;;;5113942;28;20206;-80
2023/04/24 07:16:47;;;;;;;5.53;2.88;;;;;;;;;;5114894;28;20247;-79
2023/04/24 07:19:15;;;;;;;3.78;2.70;;;;;;;;;;5114399;28;20320;-79
2023/04/24 07:21:42;;;;;;;5.38;2.95;;;;;;;;;;5114374;28;20309;-80
2023/04/24 07:24:11;;;;;;;5.40;3.30;;;;;;;;;;5114424;28;20208;-80
2023/04/24 07:26:39;;;;;;;5.65;2.70;;;;;;;;;;5114104;28;20193;-80
2023/04/24 07:29:06;;;;;;;4.60;2.70;;;;;;;;;;5113950;28;20204;-81
2023/04/24 07:31:33;;;;;;;3.72;2.70;;;;;;;;;;5114023;28;20225;-80
2023/04/24 07:34:00;;;;;;;6.32;2.90;;;;;;;;;;5114301;28;20208;-80
2023/04/24 07:36:27;;;;;;;5.80;3.05;;;;;;;;;;5114213;28;20225;-79
2023/04/24 07:38:56;;;;;;;4.18;2.92;;;;;;;;;;5114463;28;20227;-80
2023/04/24 07:41:25;;;;;;;4.47;2.92;;;;;;;;;;5113738;28;20217;-80
2023/04/24 07:43:53;;;;;;;6.75;3.22;;;;;;;;;;5113480;28;20204;-80
2023/04/24 07:46:20;;;;;;;5.82;2.90;;;;;;;;;;5114517;28;20269;-80
2023/04/24 07:48:48;;;;;;;5.05;3.22;;;;;;;;;;5113540;28;20280;-80
2023/04/24 07:51:16;;;;;;;4.35;2.80;;;;;;;;;;5113536;28;20200;-80
2023/04/24 07:53:43;;;;;;;5.60;3.00;;;;;;;;;;5113866;28;20273;-80
2023/04/24 07:56:10;;;;;;;4.18;3.15;;;;;;;;;;5113977;28;20246;-80
2023/04/24 07:58:39;;;;;;;5.10;2.50;;;;;;;;;;5113181;28;20741;-81
2023/04/24 08:01:06;;;;;;;5.18;2.58;;;;;;;;;;5113680;28;20228;-81
2023/04/24 08:03:34;;;;;;;3.67;2.50;;;;;;;;;;5113498;28;20219;-80
2023/04/24 08:06:01;;;;;;;5.82;2.90;;;;;;;;;;5113229;28;20288;-80
2023/04/24 08:08:28;;;;;;;4.07;2.50;;;;;;;;;;5113383;28;20281;-81
2023/04/24 08:10:55;;;;;;;5.05;2.40;;;;;;;;;;5113560;28;20233;-81
2023/04/24 08:13:22;;;;;;;4.93;2.80;;;;;;;;;;5112795;28;20277;-80
2023/04/24 08:15:51;;;;;;;5.00;2.80;;;;;;;;;;5113134;28;20582;-77
2023/04/24 08:18:18;;;;;;;3.50;2.47;;;;;;;;;;5112908;28;20189;-81
2023/04/24 08:20:46;;;;;;;4.03;2.17;;;;;;;;;;5112908;28;20317;-81
2023/04/24 08:23:13;;;;;;;4.22;2.42;;;;;;;;;;5113128;28;20583;-80
2023/04/24 08:25:40;;;;;;;3.60;2.15;;;;;;;;;;5112455;28;20217;-79
2023/04/24 08:28:08;;;;;;;2.65;2.20;;;;;;;;;;5113161;28;20190;-81
2023/04/24 08:30:35;;;;;;;3.75;2.40;;;;;;;;;;5112878;28;20234;-80
2023/04/24 08:33:04;;;;;;;2.83;2.13;;;;;;;;;;5112905;28;20738;-79
2023/04/24 08:35:31;;;;;;;4.32;2.70;;;;;;;;;;5113095;28;20284;-80
2023/04/24 08:37:58;;;;;;;5.43;2.60;;;;;;;;;;5112958;28;20225;-80
2023/04/24 08:40:29;;;;;;;4.07;2.67;;;;;;;;;;5112584;28;20321;-81
2023/04/24 08:42:57;;;;;;;3.80;2.22;;;;;;;;;;5112448;28;20241;-79
2023/04/24 08:45:25;;;;;;;4.70;2.17;;;;;;;;;;5112521;28;20197;-80
2023/04/24 08:47:54;;;;;;;5.22;1.90;;;;;;;;;;5112741;28;20198;-80
2023/04/24 08:50:23;;;;;;;2.85;2.00;;;;;;;;;;5113353;28;20204;-80
2023/04/24 08:52:53;;;;;;;4.82;2.25;;;;;;;;;;5112682;28;20201;-81
2023/04/24 08:55:20;;;;;;;5.38;2.25;;;;;;;;;;5112059;28;20254;-81
2023/04/24 08:57:50;;;;;;;5.53;2.40;;;;;;;;;;5112740;28;20194;-81
2023/04/24 09:00:18;;;;;;;3.35;2.08;;;;;;;;;;5112368;28;20320;-80
2023/04/24 09:02:46;;;;;;;3.30;2.58;;;;;;;;;;5112249;28;20285;-79
2023/04/24 09:05:14;;;;;;;4.57;2.33;;;;;;;;;;5112454;28;20281;-80
2023/04/24 09:07:46;;;;;;;5.13;2.60;;;;;;;;;;5112251;28;20196;-80
2023/04/24 09:10:13;;;;;;;3.78;2.30;;;;;;;;;;5112222;28;20201;-81
2023/04/24 09:12:41;;;;;;;2.63;2.10;;;;;;;;;;5112311;28;20582;-80
2023/04/24 09:15:09;;;;;;;3.60;2.45;;;;;;;;;;5092064;28;20202;-81
2023/04/24 09:17:36;;;;;;;5.35;2.53;;;;;;;;;;5092082;28;20198;-81
2023/04/24 09:20:04;;;;;;;4.35;2.60;;;;;;;;;;5091797;28;20262;-81
2023/04/24 09:22:31;;;;;;;6.65;2.30;;;;;;;;;;5091594;28;20194;-81
2023/04/24 09:25:05;;;;;;;6.38;2.60;;;;;;;;;;5091439;28;20285;-80
2023/04/24 09:27:32;;;;;;;6.50;2.60;;;;;;;;;;5091750;28;20202;-81
2023/04/24 09:30:00;;;;;;;5.15;2.70;;;;;;;;;;5091259;28;20241;-82
2023/04/24 09:32:29;;;;;;;5.30;3.00;;;;;;;;;;5091846;28;20281;-80
2023/04/24 09:35:10;;;;;;;4.53;2.97;;;;;;;;;;5091538;28;20308;-80
2023/04/24 09:37:38;;;;;;;4.35;2.88;;;;;;;;;;5091576;28;20225;-80
2023/04/24 09:40:11;;;;;;;3.70;2.78;;;;;;;;;;5091006;28;20218;-80
2023/04/24 09:42:38;;;;;;;6.15;3.30;;;;;;;;;;5091702;28;20396;-81
2023/04/24 09:45:10;;;;;;;5.32;2.97;;;;;;;;;;5091265;28;20293;-81
2023/04/24 09:47:37;;;;;;;5.38;2.70;;;;;;;;;;5091695;28;20202;-80
2023/04/24 09:50:11;;;;;;;3.95;2.70;;;;;;;;;;5091564;28;20289;-81
2023/04/24 09:52:41;;;;;;;5.20;2.72;;;;;;;;;;5091474;28;20277;-79
2023/04/24 09:55:13;;;;;;;6.93;2.40;;;;;;;;;;5091552;28;20195;-80
2023/04/24 09:57:49;;;;;;;4.63;2.50;;;;;;;;;;5091391;28;20292;-81
2023/04/24 10:00:20;;;;;;;5.15;2.80;;;;;;;;;;5091256;28;20234;-80
2023/04/24 10:02:51;;;;;;;5.18;2.80;;;;;;;;;;5091481;28;20718;-81
2023/04/24 10:05:18;;;;;;;5.97;2.55;;;;;;;;;;5091310;28;20206;-80
2023/04/24 10:07:46;;;;;;;4.18;2.60;;;;;;;;;;5091237;28;20285;-81
2023/04/24 10:10:15;;;;;;;4.65;2.60;;;;;;;;;;5091378;28;20198;-81
2023/04/24 10:12:42;;;;;;;5.63;2.40;;;;;;;;;;5091301;28;20240;-81
2023/04/24 10:15:12;;;;;;;2.85;2.10;;;;;;;;;;5091287;28;20289;-79
2023/04/24 10:17:39;;;;;;;4.97;2.20;;;;;;;;;;5091466;28;20206;-80
2023/04/24 10:20:08;;;;;;;5.13;2.47;;;;;;;;;;5091090;28;20370;-81
2023/04/24 10:22:35;;;;;;;5.72;2.67;;;;;;;;;;5090874;28;20313;-81
2023/04/24 10:25:03;;;;;;;5.75;2.33;;;;;;;;;;5091264;28;20203;-81
2023/04/24 10:27:32;;;;;;;7.07;2.67;;;;;;;;;;5091224;28;20201;-81
2023/04/24 10:30:00;;;;;;;4.10;2.40;;;;;;;;;;5091403;28;20289;-81
2023/04/24 10:32:27;;;;;;;3.83;2.50;;;;;;;;;;5091458;28;20218;-81
2023/04/24 10:34:56;;;;;;;6.47;2.70;;;;;;;;;;5090861;28;20202;-81
2023/04/24 10:37:23;;;;;;;5.82;2.80;;;;;;;;;;5090732;28;20199;-80
2023/04/24 10:39:54;;;;;;;3.65;2.53;;;;;;;;;;5090924;28;20226;-81
2023/04/24 10:42:21;;;;;;;6.45;2.85;;;;;;;;;;5091825;28;20236;-81
2023/04/24 10:44:50;;;;;;;6.50;3.00;;;;;;;;;;5094748;28;20202;-81
2023/04/24 10:47:17;;;;;;;5.27;3.30;;;;;;;;;;5094659;28;20681;-80
2023/04/24 10:49:45;;;;;;;6.70;3.20;;;;;;;;;;5094774;28;20297;-80
2023/04/24 10:52:12;;;;;;;4.30;2.60;;;;;;;;;;5094058;28;20195;-80
2023/04/24 10:54:43;;;;;;;5.97;2.57;;;;;;;;;;5094585;28;20198;-80
2023/04/24 10:57:32;;;;;;;6.50;2.60;;;;;;;;;;5095116;28;20653;-80
2023/04/24 11:00:15;;;;;;;7.97;2.92;;;;;;;;;;5094754;28;20237;-81
2023/04/24 11:02:48;;;;;;;5.35;2.28;;;;;;;;;;5094025;28;20737;-80
2023/04/24 11:05:17;;;;;;;5.25;2.70;;;;;;;;;;5093689;28;20373;-80
2023/04/24 11:08:02;;;;;;;5.72;2.95;;;;;;;;;;5094434;28;20198;-80
2023/04/24 11:10:29;;;;;;;6.70;2.63;;;;;;;;;;5094334;28;20210;-80
2023/04/24 11:12:56;;;;;;;6.60;2.75;;;;;;;;;;5095794;28;20201;-80
2023/04/24 11:15:25;;;;;;;7.85;2.50;;;;;;;;;;5114437;28;20321;-82
2023/04/24 11:17:57;;;;;;;6.15;2.78;;;;;;;;;;5114881;28;20233;-80
2023/04/24 11:20:26;;;;;;;4.85;2.30;;;;;;;;;;5113785;28;20253;-80
2023/04/24 11:22:57;;;;;;;6.20;2.60;;;;;;;;;;5114393;28;20208;-80
2023/04/24 11:25:24;;;;;;;9.23;3.08;;;;;;;;;;5114452;28;20198;-81
2023/04/24 11:27:52;;;;;;;7.25;2.58;;;;;;;;;;5114576;28;20240;-80
2023/04/24 11:30:19;;;;;;;6.07;2.60;;;;;;;;;;5114172;28;20740;-80
2023/04/24 11:32:51;;;;;;;5.72;2.75;;;;;;;;;;5113955;28;20208;-80
2023/04/24 11:35:20;;;;;;;7.30;2.93;;;;;;;;;;5113469;28;20285;-81
2023/04/24 11:37:49;;;;;;;7.45;3.05;;;;;;;;;;5114097;28;20201;-80
2023/04/24 11:40:17;;;;;;;9.53;2.90;;;;;;;;;;5114441;28;20229;-80
2023/04/24 11:42:45;;;;;;;6.30;2.55;;;;;;;;;;5114037;28;20226;-81
2023/04/24 11:45:13;;;;;;;7.43;3.20;;;;;;;;;;5114060;28;20194;-82
2023/04/24 11:47:40;;;;;;;4.82;2.63;;;;;;;;;;5114116;28;20200;-81
2023/04/24 11:50:10;;;;;;;5.60;3.10;;;;;;;;;;5113721;28;20288;-81
2023/04/24 11:52:38;;;;;;;8.25;3.22;;;;;;;;;;5113915;28;20225;-81
2023/04/24 11:55:08;;;;;;;6.15;2.63;;;;;;;;;;5113796;28;20225;-80
2023/04/24 11:57:36;;;;;;;7.60;2.90;;;;;;;;;;5113705;28;20621;-82
2023/04/24 12:00:04;;;;;;;6.55;2.88;;;;;;;;;;5113674;28;20852;-81
2023/04/24 12:02:31;;;;;;;6.15;2.78;;;;;;;;;;5113529;28;20201;-80
2023/04/24 12:04:59;;;;;;;7.13;2.50;;;;;;;;;;5112869;28;20288;-80
2023/04/24 12:07:27;;;;;;;5.63;2.60;;;;;;;;;;5113405;28;20221;-80
2023/04/24 12:09:59;;;;;;;4.87;2.80;;;;;;;;;;5113619;28;20225;-80
2023/04/24 12:12:27;;;;;;;6.20;2.50;;;;;;;;;;5113461;28;20535;-79
2023/04/24 12:14:55;;;;;;;9.53;2.53;;;;;;;;;;5113450;28;20296;-79
2023/04/24 12:17:26;;;;;;;9.17;2.57;;;;;;;;;;5112997;28;20204;-80
2023/04/24 12:19:53;;;;;;;5.57;2.43;;;;;;;;;;5112930;28;20202;-78
2023/04/24 12:22:21;;;;;;;5.20;2.43;;;;;;;;;;5113050;28;20320;-81
2023/04/24 12:24:58;;;;;;;6.90;2.40;;;;;;;;;;5113059;28;20297;-81
2023/04/24 12:27:26;;;;;;;6.87;2.93;;;;;;;;;;5113286;28;20228;-81
2023/04/24 12:29:54;;;;;;;7.60;2.80;;;;;;;;;;5113307;28;20217;-79
2023/04/24 12:32:21;;;;;;;7.33;2.80;;;;;;;;;;5112717;28;20576;-81
2023/04/24 12:34:48;;;;;;;6.30;2.87;;;;;;;;;;5113276;28;20646;-80
2023/04/24 12:37:15;;;;;;;8.50;2.77;;;;;;;;;;5112950;28;20752;-80
2023/04/24 12:39:46;;;;;;;6.47;2.97;;;;;;;;;;5113027;28;20389;-80
2023/04/24 12:42:15;;;;;;;7.30;2.50;;;;;;;;;;5112665;28;20329;-80
2023/04/24 12:44:42;;;;;;;7.10;2.70;;;;;;;;;;5112556;28;20687;-80
2023/04/24 12:47:10;;;;;;;6.80;2.57;;;;;;;;;;5112310;28;20736;-80
2023/04/24 12:49:37;;;;;;;4.95;2.30;;;;;;;;;;5112705;28;20628;-80
2023/04/24 12:52:04;;;;;;;5.65;2.88;;;;;;;;;;5112706;28;20284;-80
2023/04/24 12:54:34;;;;;;;8.30;2.80;;;;;;;;;;5113038;28;20190;-80
2023/04/24 12:57:01;;;;;;;5.35;2.40;;;;;;;;;;5112591;28;20189;-80
2023/04/24 12:59:30;;;;;;;6.75;2.50;;;;;;;;;;5112721;28;20201;-80
2023/04/24 13:01:57;;;;;;;4.15;2.45;;;;;;;;;;5111889;28;20727;-80
2023/04/24 13:04:24;;;;;;;6.40;2.80;;;;;;;;;;5112425;28;20213;-82
2023/04/24 13:06:51;;;;;;;5.20;2.55;;;;;;;;;;5112260;28;20197;-80
2023/04/24 13:09:18;;;;;;;5.80;2.40;;;;;;;;;;5112149;28;20229;-80
2023/04/24 13:11:46;;;;;;;7.88;2.55;;;;;;;;;;5112840;28;20213;-80
2023/04/24 13:14:13;;;;;;;9.73;2.90;;;;;;;;;;5112134;28;20284;-80
2023/04/24 13:16:41;;;;;;;8.07;3.03;;;;;;;;;;5111587;28;20196;-80
2023/04/24 13:19:08;;;;;;;6.37;2.60;;;;;;;;;;5112506;28;20692;-80
2023/04/24 13:21:36;;;;;;;5.97;2.55;;;;;;;;;;5112241;28;20733;-80
2023/04/24 13:24:04;;;;;;;5.90;2.50;;;;;;;;;;5112214;28;20201;-80
2023/04/24 13:26:31;;;;;;;4.68;2.22;;;;;;;;;;5111910;28;20201;-81
2023/04/24 13:28:58;;;;;;;6.18;2.53;;;;;;;;;;5112441;28;20197;-81
2023/04/24 13:31:26;;;;;;;8.10;2.50;;;;;;;;;;5111443;28;20293;-80
2023/04/24 13:33:54;;;;;;;5.97;2.42;;;;;;;;;;5111713;28;20647;-80
2023/04/24 13:36:21;;;;;;;6.32;2.28;;;;;;;;;;5112176;28;20286;-81
2023/04/24 13:38:48;;;;;;;7.93;2.60;;;;;;;;;;5112185;28;20291;-81
2023/04/24 13:41:16;;;;;;;4.10;2.10;;;;;;;;;;5111953;28;20229;-81
2023/04/24 13:43:43;;;;;;;5.80;2.63;;;;;;;;;;5111662;28;20233;-80
2023/04/24 13:46:10;;;;;;;6.57;2.30;;;;;;;;;;5111225;28;20292;-81
2023/04/24 13:48:37;;;;;;;3.75;1.88;;;;;;;;;;5111760;28;20292;-81
2023/04/24 13:51:06;;;;;;;5.15;2.20;;;;;;;;;;5111740;28;20229;-80
2023/04/24 13:53:35;;;;;;;8.23;3.00;;;;;;;;;;5111813;28;20280;-80
2023/04/24 13:56:03;;;;;;;8.52;2.55;;;;;;;;;;5112148;28;20202;-80
2023/04/24 13:58:30;;;;;;;6.72;2.25;;;;;;;;;;5111785;28;20222;-82
2023/04/24 14:00:57;;;;;;;4.18;2.00;;;;;;;;;;5111395;28;20217;-81
2023/04/24 14:03:24;;;;;;;4.85;2.15;;;;;;;;;;5111762;28;20266;-82
2023/04/24 14:05:51;;;;;;;3.90;2.00;;;;;;;;;;5111840;28;20288;-81
2023/04/24 14:08:20;;;;;;;5.75;2.28;;;;;;;;;;5111621;28;20284;-81
2023/04/24 14:10:47;;;;;;;9.02;2.50;;;;;;;;;;5111475;28;20620;-80
2023/04/24 14:13:14;;;;;;;6.47;2.20;;;;;;;;;;5112020;28;20217;-81
2023/04/24 14:15:41;;;;;;;7.28;2.33;;;;;;;;;;5111095;28;20189;-81
2023/04/24 14:18:08;;;;;;;4.55;2.35;;;;;;;;;;5114082;28;20212;-81
2023/04/24 14:20:36;;;;;;;4.65;2.10;;;;;;;;;;5115849;28;20215;-81
2023/04/24 14:23:03;;;;;;;5.43;2.10;;;;;;;;;;5115550;28;20253;-80
2023/04/24 14:25:32;;;;;;;5.80;2.55;;;;;;;;;;5115511;28;20202;-81
2023/04/24 14:27:59;;;;;;;3.60;1.83;;;;;;;;;;5115304;27;20193;-82
2023/04/24 14:30:26;;;;;;;4.90;2.22;;;;;;;;;;5115070;28;20292;-81
2023/04/24 14:32:54;;;;;;;3.80;1.88;;;;;;;;;;5115240;28;20296;-81
2023/04/24 14:35:21;;;;;;;5.05;1.92;;;;;;;;;;5115651;28;20292;-80
2023/04/24 14:37:49;;;;;;;5.93;2.03;;;;;;;;;;5115520;28;20281;-81
2023/04/24 14:40:16;;;;;;;6.32;2.22;;;;;;;;;;5115274;28;20196;-80
2023/04/24 14:42:45;;;;;;;4.40;2.00;;;;;;;;;;5114679;28;20337;-81
2023/04/24 14:45:12;;;;;;;4.70;1.90;;;;;;;;;;5115397;28;20263;-81
2023/04/24 14:47:39;;;;;;;3.97;1.83;;;;;;;;;;5115344;28;20285;-80